Terminal Aerodrome Forecast
Issued by NWS Goodland, KS

Home | Current Version | Previous Version | Text Only | Print | Product List | Glossary On
Versions: 1 2 3 4 5 6 7 8 9 10 11 12 13 14
128
FTUS43 KGLD 221126
TAFGLD
TAF
KGLD 221126Z 2212/2312 32010KT P6SM FEW110
     FM221300 32010KT P6SM SCT140
     FM221800 34019KT P6SM FEW140
     FM230000 31010KT P6SM SKC
     FM230100 28005KT P6SM SKC
     FM230600 22006KT P6SM SCT250=

USA.gov is the U.S. government's official web portal to all federal, state and local government web resources and services.